sensor_id;sensor_type;location;lat;lon;timestamp;pressure;altitude;pressure_sealevel;temperature;humidity
64967;BME280;51710;38.732;-121.358;2022-08-02T00:00:15;101007.03;;;28.91;48.98
64967;BME280;51710;38.732;-121.358;2022-08-02T00:02:44;101001.25;;;28.87;49.76
64967;BME280;51710;38.732;-121.358;2022-08-02T00:05:11;100999.31;;;28.83;49.93
64967;BME280;51710;38.732;-121.358;2022-08-02T00:07:38;101006.69;;;28.77;49.96
64967;BME280;51710;38.732;-121.358;2022-08-02T00:10:06;101002.59;;;28.74;49.74
64967;BME280;51710;38.732;-121.358;2022-08-02T00:12:32;101002.56;;;28.69;49.71
64967;BME280;51710;38.732;-121.358;2022-08-02T00:14:59;100999.25;;;28.62;49.40
64967;BME280;51710;38.732;-121.358;2022-08-02T00:17:25;100992.09;;;28.56;49.98
64967;BME280;51710;38.732;-121.358;2022-08-02T00:19:52;100990.41;;;28.50;50.46
64967;BME280;51710;38.732;-121.358;2022-08-02T00:22:18;100992.03;;;28.46;50.25
64967;BME280;51710;38.732;-121.358;2022-08-02T00:24:45;100986.00;;;28.44;49.80
64967;BME280;51710;38.732;-121.358;2022-08-02T00:27:11;100989.25;;;28.36;50.27
64967;BME280;51710;38.732;-121.358;2022-08-02T00:29:37;100989.47;;;28.30;50.63
64967;BME280;51710;38.732;-121.358;2022-08-02T00:32:04;100992.22;;;28.25;50.57
64967;BME280;51710;38.732;-121.358;2022-08-02T00:34:31;100986.44;;;28.21;50.47
64967;BME280;51710;38.732;-121.358;2022-08-02T00:36:57;100989.72;;;28.18;50.71
64967;BME280;51710;38.732;-121.358;2022-08-02T00:39:24;100991.88;;;28.11;50.58
64967;BME280;51710;38.732;-121.358;2022-08-02T00:41:51;100980.31;;;28.04;51.09
64967;BME280;51710;38.732;-121.358;2022-08-02T00:44:19;100984.69;;;28.00;51.19
64967;BME280;51710;38.732;-121.358;2022-08-02T00:46:46;100978.91;;;27.97;51.45
64967;BME280;51710;38.732;-121.358;2022-08-02T00:49:13;100973.44;;;27.97;51.54
64967;BME280;51710;38.732;-121.358;2022-08-02T00:51:40;100972.09;;;27.99;52.20
64967;BME280;51710;38.732;-121.358;2022-08-02T00:54:07;100972.63;;;27.96;51.78
64967;BME280;51710;38.732;-121.358;2022-08-02T00:56:34;100972.59;;;27.91;51.63
64967;BME280;51710;38.732;-121.358;2022-08-02T00:59:01;100970.91;;;27.90;51.90
64967;BME280;51710;38.732;-121.358;2022-08-02T01:01:28;100976.06;;;27.87;51.61
64967;BME280;51710;38.732;-121.358;2022-08-02T01:04:08;100968.94;;;27.81;51.82
64967;BME280;51710;38.732;-121.358;2022-08-02T01:06:36;100958.47;;;27.72;52.17
64967;BME280;51710;38.732;-121.358;2022-08-02T01:09:03;100966.13;;;27.70;51.90
64967;BME280;51710;38.732;-121.358;2022-08-02T01:11:30;100963.06;;;27.67;52.25
64967;BME280;51710;38.732;-121.358;2022-08-02T01:14:09;100953.75;;;27.63;52.42
64967;BME280;51710;38.732;-121.358;2022-08-02T01:16:59;100957.00;;;27.60;52.16
64967;BME280;51710;38.732;-121.358;2022-08-02T01:20:00;100955.06;;;27.55;51.80
64967;BME280;51710;38.732;-121.358;2022-08-02T01:30:54;100951.47;;;27.50;52.57
64967;BME280;51710;38.732;-121.358;2022-08-02T01:33:24;100936.41;;;27.47;52.22
64967;BME280;51710;38.732;-121.358;2022-08-02T01:35:55;100935.00;;;27.45;52.25
64967;BME280;51710;38.732;-121.358;2022-08-02T01:38:36;100937.16;;;27.38;52.48
64967;BME280;51710;38.732;-121.358;2022-08-02T01:41:06;100947.50;;;27.31;53.15
64967;BME280;51710;38.732;-121.358;2022-08-02T01:43:35;100945.25;;;27.28;52.67
64967;BME280;51710;38.732;-121.358;2022-08-02T01:46:04;100945.78;;;27.25;52.70
64967;BME280;51710;38.732;-121.358;2022-08-02T01:48:31;100945.22;;;27.23;52.80
64967;BME280;51710;38.732;-121.358;2022-08-02T01:51:00;100932.31;;;27.18;52.91
64967;BME280;51710;38.732;-121.358;2022-08-02T01:53:28;100932.00;;;27.15;53.04
64967;BME280;51710;38.732;-121.358;2022-08-02T01:55:57;100933.06;;;27.09;53.08
64967;BME280;51710;38.732;-121.358;2022-08-02T01:58:26;100928.34;;;27.04;53.30
64967;BME280;51710;38.732;-121.358;2022-08-02T02:00:58;100923.69;;;27.00;53.18
64967;BME280;51710;38.732;-121.358;2022-08-02T02:03:27;100920.59;;;26.91;53.46
64967;BME280;51710;38.732;-121.358;2022-08-02T02:05:56;100923.84;;;26.88;53.45
64967;BME280;51710;38.732;-121.358;2022-08-02T02:08:33;100925.75;;;26.88;53.55
64967;BME280;51710;38.732;-121.358;2022-08-02T02:11:02;100929.81;;;26.85;53.47
64967;BME280;51710;38.732;-121.358;2022-08-02T02:13:29;100927.34;;;26.84;53.72
64967;BME280;51710;38.732;-121.358;2022-08-02T02:16:01;100918.03;;;26.80;53.94
64967;BME280;51710;38.732;-121.358;2022-08-02T02:18:29;100917.41;;;26.73;54.12
64967;BME280;51710;38.732;-121.358;2022-08-02T02:20:57;100912.09;;;26.66;54.18
64967;BME280;51710;38.732;-121.358;2022-08-02T02:23:23;100918.34;;;26.61;54.52
64967;BME280;51710;38.732;-121.358;2022-08-02T02:25:52;100923.78;;;26.56;54.65
64967;BME280;51710;38.732;-121.358;2022-08-02T02:28:28;100917.69;;;26.49;55.12
64967;BME280;51710;38.732;-121.358;2022-08-02T02:31:10;100914.31;;;26.42;54.95
64967;BME280;51710;38.732;-121.358;2022-08-02T02:33:43;100920.53;;;26.38;55.00
64967;BME280;51710;38.732;-121.358;2022-08-02T02:36:13;100928.13;;;26.31;55.40
64967;BME280;51710;38.732;-121.358;2022-08-02T02:38:42;100927.25;;;26.25;55.27
64967;BME280;51710;38.732;-121.358;2022-08-02T02:41:09;100919.00;;;26.20;55.39
64967;BME280;51710;38.732;-121.358;2022-08-02T02:43:37;100921.16;;;26.18;55.28
64967;BME280;51710;38.732;-121.358;2022-08-02T02:46:05;100914.53;;;26.14;55.23
64967;BME280;51710;38.732;-121.358;2022-08-02T02:48:34;100915.84;;;26.12;55.48
64967;BME280;51710;38.732;-121.358;2022-08-02T02:51:03;100911.75;;;26.09;55.64
64967;BME280;51710;38.732;-121.358;2022-08-02T02:53:31;100916.06;;;26.05;55.71
64967;BME280;51710;38.732;-121.358;2022-08-02T02:55:58;100914.91;;;26.01;56.07
64967;BME280;51710;38.732;-121.358;2022-08-02T02:58:25;100911.59;;;25.99;56.26
64967;BME280;51710;38.732;-121.358;2022-08-02T03:00:53;100909.94;;;25.98;56.12
64967;BME280;51710;38.732;-121.358;2022-08-02T03:03:39;100919.22;;;25.97;56.37
64967;BME280;51710;38.732;-121.358;2022-08-02T03:06:05;100924.34;;;25.94;56.43
64967;BME280;51710;38.732;-121.358;2022-08-02T03:08:32;100921.28;;;25.90;56.36
64967;BME280;51710;38.732;-121.358;2022-08-02T03:10:59;100913.09;;;25.90;56.76
64967;BME280;51710;38.732;-121.358;2022-08-02T03:13:25;100920.22;;;25.91;56.64
64967;BME280;51710;38.732;-121.358;2022-08-02T03:15:52;100919.16;;;25.92;56.65
64967;BME280;51710;38.732;-121.358;2022-08-02T03:18:38;100917.72;;;25.90;56.58
64967;BME280;51710;38.732;-121.358;2022-08-02T03:21:09;100916.34;;;25.87;56.96
64967;BME280;51710;38.732;-121.358;2022-08-02T03:23:37;100912.97;;;25.80;57.29
64967;BME280;51710;38.732;-121.358;2022-08-02T03:26:04;100920.00;;;25.76;57.44
64967;BME280;51710;38.732;-121.358;2022-08-02T03:28:31;100923.25;;;25.73;57.39
64967;BME280;51710;38.732;-121.358;2022-08-02T03:30:58;100918.78;;;25.67;57.91
64967;BME280;51710;38.732;-121.358;2022-08-02T03:33:26;100918.13;;;25.60;57.86
64967;BME280;51710;38.732;-121.358;2022-08-02T03:35:55;100914.75;;;25.53;58.30
64967;BME280;51710;38.732;-121.358;2022-08-02T03:38:24;100907.81;;;25.45;58.44
64967;BME280;51710;38.732;-121.358;2022-08-02T03:40:52;100917.84;;;25.40;58.53
64967;BME280;51710;38.732;-121.358;2022-08-02T03:43:21;100918.81;;;25.34;58.54
64967;BME280;51710;38.732;-121.358;2022-08-02T03:45:48;100917.16;;;25.33;58.95
64967;BME280;51710;38.732;-121.358;2022-08-02T03:48:16;100928.06;;;25.33;58.60
64967;BME280;51710;38.732;-121.358;2022-08-02T03:50:43;100933.53;;;25.33;59.04
64967;BME280;51710;38.732;-121.358;2022-08-02T03:53:11;100927.22;;;25.32;58.94
64967;BME280;51710;38.732;-121.358;2022-08-02T03:55:39;100939.44;;;25.30;58.77
64967;BME280;51710;38.732;-121.358;2022-08-02T03:58:05;100929.63;;;25.29;59.03
64967;BME280;51710;38.732;-121.358;2022-08-02T04:00:32;100940.28;;;25.30;58.93
64967;BME280;51710;38.732;-121.358;2022-08-02T04:02:59;100934.50;;;25.27;58.70
64967;BME280;51710;38.732;-121.358;2022-08-02T04:05:25;100930.38;;;25.24;58.69
64967;BME280;51710;38.732;-121.358;2022-08-02T04:07:52;100931.44;;;25.23;58.89
64967;BME280;51710;38.732;-121.358;2022-08-02T04:10:18;100933.84;;;25.20;58.95
64967;BME280;51710;38.732;-121.358;2022-08-02T04:12:45;100927.47;;;25.14;59.18
64967;BME280;51710;38.732;-121.358;2022-08-02T04:15:13;100937.50;;;25.09;59.12
64967;BME280;51710;38.732;-121.358;2022-08-02T04:17:42;100938.81;;;25.06;59.71
64967;BME280;51710;38.732;-121.358;2022-08-02T04:20:17;100936.31;;;25.05;59.39
64967;BME280;51710;38.732;-121.358;2022-08-02T04:22:46;100940.09;;;25.04;58.83
64967;BME280;51710;38.732;-121.358;2022-08-02T04:25:13;100938.13;;;24.99;59.02
64967;BME280;51710;38.732;-121.358;2022-08-02T04:27:41;100939.94;;;24.94;59.20
64967;BME280;51710;38.732;-121.358;2022-08-02T04:30:08;100937.72;;;24.91;59.99
64967;BME280;51710;38.732;-121.358;2022-08-02T04:32:36;100950.41;;;24.85;59.73
64967;BME280;51710;38.732;-121.358;2022-08-02T04:35:03;100942.41;;;24.79;60.29
64967;BME280;51710;38.732;-121.358;2022-08-02T04:37:30;100948.81;;;24.73;59.97
64967;BME280;51710;38.732;-121.358;2022-08-02T04:39:56;100950.81;;;24.66;60.31
64967;BME280;51710;38.732;-121.358;2022-08-02T04:42:24;100958.66;;;24.62;60.74
64967;BME280;51710;38.732;-121.358;2022-08-02T04:44:52;100958.31;;;24.59;60.84
64967;BME280;51710;38.732;-121.358;2022-08-02T04:47:21;100964.25;;;24.56;60.58
64967;BME280;51710;38.732;-121.358;2022-08-02T04:49:47;100968.63;;;24.57;60.75
64967;BME280;51710;38.732;-121.358;2022-08-02T04:52:14;100968.88;;;24.55;61.02
64967;BME280;51710;38.732;-121.358;2022-08-02T04:54:40;100970.69;;;24.49;60.96
64967;BME280;51710;38.732;-121.358;2022-08-02T04:57:07;100971.66;;;24.43;61.33
64967;BME280;51710;38.732;-121.358;2022-08-02T04:59:51;100965.50;;;24.36;61.69
64967;BME280;51710;38.732;-121.358;2022-08-02T05:02:17;100962.69;;;24.31;61.47
64967;BME280;51710;38.732;-121.358;2022-08-02T05:04:44;100961.00;;;24.30;61.49
64967;BME280;51710;38.732;-121.358;2022-08-02T05:07:10;100963.97;;;24.29;61.73
64967;BME280;51710;38.732;-121.358;2022-08-02T05:09:36;100957.13;;;24.26;61.70
64967;BME280;51710;38.732;-121.358;2022-08-02T05:12:03;100957.38;;;24.25;61.63
64967;BME280;51710;38.732;-121.358;2022-08-02T05:14:29;100965.75;;;24.23;62.11
64967;BME280;51710;38.732;-121.358;2022-08-02T05:16:55;100967.69;;;24.23;62.14
64967;BME280;51710;38.732;-121.358;2022-08-02T05:19:22;100961.41;;;24.22;62.09
64967;BME280;51710;38.732;-121.358;2022-08-02T05:21:48;100961.16;;;24.24;62.08
64967;BME280;51710;38.732;-121.358;2022-08-02T05:24:14;100950.84;;;24.26;62.35
64967;BME280;51710;38.732;-121.358;2022-08-02T05:26:41;100954.41;;;24.26;61.88
64967;BME280;51710;38.732;-121.358;2022-08-02T05:29:07;100953.81;;;24.24;61.88
64967;BME280;51710;38.732;-121.358;2022-08-02T05:31:33;100957.38;;;24.25;61.97
64967;BME280;51710;38.732;-121.358;2022-08-02T05:34:00;100963.63;;;24.25;61.89
64967;BME280;51710;38.732;-121.358;2022-08-02T05:36:26;100963.63;;;24.25;61.42
64967;BME280;51710;38.732;-121.358;2022-08-02T05:38:53;100961.75;;;24.26;62.02
64967;BME280;51710;38.732;-121.358;2022-08-02T05:41:20;100966.94;;;24.27;61.68
64967;BME280;51710;38.732;-121.358;2022-08-02T05:43:46;100963.63;;;24.25;61.61
64967;BME280;51710;38.732;-121.358;2022-08-02T05:46:13;100964.63;;;24.19;61.71
64967;BME280;51710;38.732;-121.358;2022-08-02T05:48:39;100954.06;;;24.11;62.02
64967;BME280;51710;38.732;-121.358;2022-08-02T05:51:11;100957.78;;;24.05;62.11
64967;BME280;51710;38.732;-121.358;2022-08-02T05:53:53;100957.19;;;24.03;61.92
64967;BME280;51710;38.732;-121.358;2022-08-02T05:56:31;100947.84;;;23.99;62.07
64967;BME280;51710;38.732;-121.358;2022-08-02T05:59:47;100949.94;;;23.97;61.98
64967;BME280;51710;38.732;-121.358;2022-08-02T06:01:47;100954.22;;;23.93;61.96
64967;BME280;51710;38.732;-121.358;2022-08-02T06:04:21;100956.34;;;23.91;62.29
64967;BME280;51710;38.732;-121.358;2022-08-02T06:06:54;100949.72;;;23.87;62.59
64967;BME280;51710;38.732;-121.358;2022-08-02T06:09:22;100964.63;;;23.85;62.43
64967;BME280;51710;38.732;-121.358;2022-08-02T06:11:51;100954.00;;;23.83;62.44
64967;BME280;51710;38.732;-121.358;2022-08-02T06:14:18;100956.72;;;23.83;62.58
64967;BME280;51710;38.732;-121.358;2022-08-02T06:16:45;100949.59;;;23.82;62.69
64967;BME280;51710;38.732;-121.358;2022-08-02T06:19:12;100950.19;;;23.84;62.67
64967;BME280;51710;38.732;-121.358;2022-08-02T06:21:40;100955.16;;;23.87;62.59
64967;BME280;51710;38.732;-121.358;2022-08-02T06:24:09;100948.06;;;23.86;62.48
64967;BME280;51710;38.732;-121.358;2022-08-02T06:26:36;100952.69;;;23.86;62.44
64967;BME280;51710;38.732;-121.358;2022-08-02T06:29:03;100950.56;;;23.88;62.66
64967;BME280;51710;38.732;-121.358;2022-08-02T06:31:30;100958.47;;;23.89;62.50
64967;BME280;51710;38.732;-121.358;2022-08-02T06:33:57;100954.66;;;23.90;62.55
64967;BME280;51710;38.732;-121.358;2022-08-02T06:39:02;100945.81;;;23.95;62.67
64967;BME280;51710;38.732;-121.358;2022-08-02T06:41:41;100938.25;;;23.97;62.49
64967;BME280;51710;38.732;-121.358;2022-08-02T06:44:08;100945.56;;;23.96;62.23
64967;BME280;51710;38.732;-121.358;2022-08-02T06:46:35;100947.44;;;23.96;62.23
64967;BME280;51710;38.732;-121.358;2022-08-02T06:49:03;100944.72;;;23.96;62.39
64967;BME280;51710;38.732;-121.358;2022-08-02T06:51:30;100943.34;;;23.93;62.34
64967;BME280;51710;38.732;-121.358;2022-08-02T06:53:56;100952.53;;;23.92;62.46
64967;BME280;51710;38.732;-121.358;2022-08-02T06:56:22;100950.91;;;23.91;62.56
64967;BME280;51710;38.732;-121.358;2022-08-02T06:58:49;100950.06;;;23.91;62.26
64967;BME280;51710;38.732;-121.358;2022-08-02T07:01:17;100943.78;;;23.90;62.39
64967;BME280;51710;38.732;-121.358;2022-08-02T07:03:44;100947.59;;;23.89;62.43
64967;BME280;51710;38.732;-121.358;2022-08-02T07:06:10;100952.69;;;23.86;62.24
64967;BME280;51710;38.732;-121.358;2022-08-02T07:08:37;100953.66;;;23.80;62.37
64967;BME280;51710;38.732;-121.358;2022-08-02T07:11:08;100954.59;;;23.74;62.61
64967;BME280;51710;38.732;-121.358;2022-08-02T07:13:34;100944.44;;;23.69;62.63
64967;BME280;51710;38.732;-121.358;2022-08-02T07:16:02;100952.00;;;23.67;62.65
64967;BME280;51710;38.732;-121.358;2022-08-02T07:18:29;100952.22;;;23.66;62.49
64967;BME280;51710;38.732;-121.358;2022-08-02T07:20:55;100953.53;;;23.63;63.00
64967;BME280;51710;38.732;-121.358;2022-08-02T07:23:22;100960.03;;;23.62;62.48
64967;BME280;51710;38.732;-121.358;2022-08-02T07:25:48;100958.59;;;23.60;62.56
64967;BME280;51710;38.732;-121.358;2022-08-02T07:28:15;100957.78;;;23.59;62.96
64967;BME280;51710;38.732;-121.358;2022-08-02T07:30:42;100957.19;;;23.57;62.65
64967;BME280;51710;38.732;-121.358;2022-08-02T07:33:08;100955.28;;;23.58;62.63
64967;BME280;51710;38.732;-121.358;2022-08-02T07:35:35;100951.75;;;23.57;62.66
64967;BME280;51710;38.732;-121.358;2022-08-02T07:38:01;100951.97;;;23.56;62.48
64967;BME280;51710;38.732;-121.358;2022-08-02T07:40:28;100959.94;;;23.57;62.39
64967;BME280;51710;38.732;-121.358;2022-08-02T07:42:56;100965.81;;;23.54;62.64
64967;BME280;51710;38.732;-121.358;2022-08-02T07:45:23;100967.56;;;23.49;62.69
64967;BME280;51710;38.732;-121.358;2022-08-02T07:47:51;100967.94;;;23.40;62.70
64967;BME280;51710;38.732;-121.358;2022-08-02T07:50:19;100961.78;;;23.33;62.77
64967;BME280;51710;38.732;-121.358;2022-08-02T07:52:47;100960.81;;;23.28;62.95
64967;BME280;51710;38.732;-121.358;2022-08-02T07:55:15;100963.63;;;23.21;63.13
64967;BME280;51710;38.732;-121.358;2022-08-02T07:57:43;100957.69;;;23.13;63.26
64967;BME280;51710;38.732;-121.358;2022-08-02T08:00:10;100965.00;;;23.01;63.43
64967;BME280;51710;38.732;-121.358;2022-08-02T08:02:36;100962.03;;;22.91;63.58
64967;BME280;51710;38.732;-121.358;2022-08-02T08:05:04;100952.53;;;22.82;64.25
64967;BME280;51710;38.732;-121.358;2022-08-02T08:07:34;100950.13;;;22.74;64.54
64967;BME280;51710;38.732;-121.358;2022-08-02T08:10:01;100946.13;;;22.65;64.64
64967;BME280;51710;38.732;-121.358;2022-08-02T08:12:28;100946.41;;;22.57;64.87
64967;BME280;51710;38.732;-121.358;2022-08-02T08:14:55;100939.38;;;22.49;64.95
64967;BME280;51710;38.732;-121.358;2022-08-02T08:17:21;100947.75;;;22.48;65.26
64967;BME280;51710;38.732;-121.358;2022-08-02T08:19:48;100945.03;;;22.48;65.38
64967;BME280;51710;38.732;-121.358;2022-08-02T08:22:14;100945.28;;;22.46;65.36
64967;BME280;51710;38.732;-121.358;2022-08-02T08:24:40;100946.22;;;22.40;65.57
64967;BME280;51710;38.732;-121.358;2022-08-02T08:27:07;100936.25;;;22.34;65.65
64967;BME280;51710;38.732;-121.358;2022-08-02T08:29:40;100942.16;;;22.31;65.94
64967;BME280;51710;38.732;-121.358;2022-08-02T08:32:07;100937.00;;;22.23;66.27
64967;BME280;51710;38.732;-121.358;2022-08-02T08:34:33;100939.34;;;22.19;66.41
64967;BME280;51710;38.732;-121.358;2022-08-02T08:37:00;100927.91;;;22.17;67.04
64967;BME280;51710;38.732;-121.358;2022-08-02T08:39:29;100940.03;;;22.15;66.73
64967;BME280;51710;38.732;-121.358;2022-08-02T08:41:55;100940.28;;;22.13;66.99
64967;BME280;51710;38.732;-121.358;2022-08-02T08:44:21;100937.78;;;22.12;67.02
64967;BME280;51710;38.732;-121.358;2022-08-02T08:46:49;100941.78;;;22.09;67.10
64967;BME280;51710;38.732;-121.358;2022-08-02T08:49:28;100946.59;;;22.07;67.07
64967;BME280;51710;38.732;-121.358;2022-08-02T08:52:00;100945.41;;;22.03;67.46
64967;BME280;51710;38.732;-121.358;2022-08-02T08:54:29;100947.13;;;21.98;67.39
64967;BME280;51710;38.732;-121.358;2022-08-02T08:56:56;100950.06;;;21.96;67.69
64967;BME280;51710;38.732;-121.358;2022-08-02T08:59:23;100946.75;;;21.94;67.75
64967;BME280;51710;38.732;-121.358;2022-08-02T09:01:50;100943.59;;;21.97;67.79
64967;BME280;51710;38.732;-121.358;2022-08-02T09:04:18;100940.88;;;21.97;67.68
64967;BME280;51710;38.732;-121.358;2022-08-02T09:06:44;100937.13;;;21.98;67.81
64967;BME280;51710;38.732;-121.358;2022-08-02T09:09:11;100945.25;;;21.98;67.84
64967;BME280;51710;38.732;-121.358;2022-08-02T09:11:37;100944.66;;;21.96;67.89
64967;BME280;51710;38.732;-121.358;2022-08-02T09:14:03;100949.25;;;21.96;68.00
64967;BME280;51710;38.732;-121.358;2022-08-02T09:16:38;100946.75;;;21.94;68.16
64967;BME280;51710;38.732;-121.358;2022-08-02T09:19:22;100945.09;;;21.93;68.19
64967;BME280;51710;38.732;-121.358;2022-08-02T09:22:00;100942.97;;;21.95;68.06
64967;BME280;51710;38.732;-121.358;2022-08-02T09:24:27;100941.47;;;21.99;67.98
64967;BME280;51710;38.732;-121.358;2022-08-02T09:26:53;100938.53;;;22.01;68.04
64967;BME280;51710;38.732;-121.358;2022-08-02T09:29:23;100944.56;;;22.03;68.03
64967;BME280;51710;38.732;-121.358;2022-08-02T09:31:50;100938.91;;;22.04;67.71
64967;BME280;51710;38.732;-121.358;2022-08-02T09:34:17;100934.09;;;22.06;67.98
64967;BME280;51710;38.732;-121.358;2022-08-02T09:36:45;100936.34;;;22.09;67.69
64967;BME280;51710;38.732;-121.358;2022-08-02T09:39:14;100931.53;;;22.11;67.79
64967;BME280;51710;38.732;-121.358;2022-08-02T09:41:43;100921.03;;;22.15;67.94
64967;BME280;51710;38.732;-121.358;2022-08-02T09:44:13;100922.25;;;22.19;67.90
64967;BME280;51710;38.732;-121.358;2022-08-02T09:46:43;100928.50;;;22.19;68.03
64967;BME280;51710;38.732;-121.358;2022-08-02T09:49:13;100934.53;;;22.21;67.69
64967;BME280;51710;38.732;-121.358;2022-08-02T09:51:52;100936.44;;;22.21;67.88
64967;BME280;51710;38.732;-121.358;2022-08-02T09:54:24;100942.28;;;22.18;67.81
64967;BME280;51710;38.732;-121.358;2022-08-02T09:59:19;100940.34;;;22.07;68.18
64967;BME280;51710;38.732;-121.358;2022-08-02T10:01:47;100929.13;;;22.03;68.55
64967;BME280;51710;38.732;-121.358;2022-08-02T10:04:14;100933.13;;;22.01;68.48
64967;BME280;51710;38.732;-121.358;2022-08-02T10:06:44;100926.47;;;21.97;68.63
64967;BME280;51710;38.732;-121.358;2022-08-02T10:09:11;100934.22;;;21.93;68.73
64967;BME280;51710;38.732;-121.358;2022-08-02T10:11:38;100942.84;;;21.90;69.03
64967;BME280;51710;38.732;-121.358;2022-08-02T10:14:07;100943.28;;;21.87;68.99
64967;BME280;51710;38.732;-121.358;2022-08-02T10:16:37;100946.47;;;21.84;68.63
64967;BME280;51710;38.732;-121.358;2022-08-02T10:19:03;100944.63;;;21.78;69.17
64967;BME280;51710;38.732;-121.358;2022-08-02T10:21:42;100937.38;;;21.72;69.25
64967;BME280;51710;38.732;-121.358;2022-08-02T10:24:14;100947.63;;;21.70;69.33
64967;BME280;51710;38.732;-121.358;2022-08-02T10:26:45;100948.88;;;21.68;69.42
64967;BME280;51710;38.732;-121.358;2022-08-02T10:29:20;100954.06;;;21.69;69.49
64967;BME280;51710;38.732;-121.358;2022-08-02T10:32:15;100952.44;;;21.68;69.20
64967;BME280;51710;38.732;-121.358;2022-08-02T10:34:50;100946.16;;;21.68;69.45
64967;BME280;51710;38.732;-121.358;2022-08-02T10:37:20;100938.25;;;21.66;69.63
64967;BME280;51710;38.732;-121.358;2022-08-02T10:39:47;100928.91;;;21.62;69.51
64967;BME280;51710;38.732;-121.358;2022-08-02T10:42:43;100933.94;;;21.59;69.58
64967;BME280;51710;38.732;-121.358;2022-08-02T10:45:11;100940.06;;;21.54;69.65
64967;BME280;51710;38.732;-121.358;2022-08-02T10:48:02;100940.13;;;21.48;69.89
64967;BME280;51710;38.732;-121.358;2022-08-02T10:53:20;100931.31;;;21.52;69.86
64967;BME280;51710;38.732;-121.358;2022-08-02T10:55:46;100949.69;;;21.50;70.07
64967;BME280;51710;38.732;-121.358;2022-08-02T10:58:17;100947.66;;;21.46;69.81
64967;BME280;51710;38.732;-121.358;2022-08-02T11:00:45;100952.69;;;21.42;70.05
64967;BME280;51710;38.732;-121.358;2022-08-02T11:08:34;100948.91;;;21.18;70.90
64967;BME280;51710;38.732;-121.358;2022-08-02T11:11:15;100947.72;;;21.14;70.93
64967;BME280;51710;38.732;-121.358;2022-08-02T11:14:02;100947.09;;;21.12;71.10
64967;BME280;51710;38.732;-121.358;2022-08-02T11:19:22;100946.88;;;21.14;71.00
64967;BME280;51710;38.732;-121.358;2022-08-02T11:22:18;100946.25;;;21.12;71.26
64967;BME280;51710;38.732;-121.358;2022-08-02T11:24:45;100938.97;;;21.12;71.25
64967;BME280;51710;38.732;-121.358;2022-08-02T11:27:20;100952.44;;;21.19;70.95
64967;BME280;51710;38.732;-121.358;2022-08-02T11:29:47;100956.78;;;21.27;70.96
64967;BME280;51710;38.732;-121.358;2022-08-02T11:32:23;100957.78;;;21.32;70.57
64967;BME280;51710;38.732;-121.358;2022-08-02T11:34:51;100955.88;;;21.33;70.57
64967;BME280;51710;38.732;-121.358;2022-08-02T11:37:31;100958.19;;;21.29;70.46
64967;BME280;51710;38.732;-121.358;2022-08-02T11:40:01;100954.28;;;21.25;70.77
64967;BME280;51710;38.732;-121.358;2022-08-02T11:42:32;100955.78;;;21.21;71.07
64967;BME280;51710;38.732;-121.358;2022-08-02T11:44:59;100961.03;;;21.16;71.06
64967;BME280;51710;38.732;-121.358;2022-08-02T11:47:25;100966.66;;;21.14;71.08
64967;BME280;51710;38.732;-121.358;2022-08-02T11:50:02;100970.34;;;21.20;71.32
64967;BME280;51710;38.732;-121.358;2022-08-02T11:52:32;100973.25;;;21.25;71.35
64967;BME280;51710;38.732;-121.358;2022-08-02T11:55:00;100970.72;;;21.30;71.14
64967;BME280;51710;38.732;-121.358;2022-08-02T11:57:26;100978.63;;;21.32;70.97
64967;BME280;51710;38.732;-121.358;2022-08-02T11:59:54;100986.13;;;21.30;70.90
64967;BME280;51710;38.732;-121.358;2022-08-02T12:02:26;100976.13;;;21.30;71.02
64967;BME280;51710;38.732;-121.358;2022-08-02T12:05:01;100984.44;;;21.35;70.73
64967;BME280;51710;38.732;-121.358;2022-08-02T12:10:08;100978.78;;;21.37;70.91
64967;BME280;51710;38.732;-121.358;2022-08-02T12:15:14;100973.69;;;21.22;71.07
64967;BME280;51710;38.732;-121.358;2022-08-02T12:17:46;100977.28;;;21.16;71.35
64967;BME280;51710;38.732;-121.358;2022-08-02T12:20:35;100983.56;;;21.10;71.70
64967;BME280;51710;38.732;-121.358;2022-08-02T12:23:02;100980.06;;;21.03;71.73
64967;BME280;51710;38.732;-121.358;2022-08-02T12:25:29;100991.75;;;20.97;72.16
64967;BME280;51710;38.732;-121.358;2022-08-02T12:28:17;100997.00;;;20.92;72.10
64967;BME280;51710;38.732;-121.358;2022-08-02T12:30:53;101004.75;;;20.88;72.36
64967;BME280;51710;38.732;-121.358;2022-08-02T12:33:21;101003.91;;;20.88;72.36
64967;BME280;51710;38.732;-121.358;2022-08-02T12:35:48;101003.06;;;20.87;72.25
64967;BME280;51710;38.732;-121.358;2022-08-02T12:38:15;101003.06;;;20.87;72.47
64967;BME280;51710;38.732;-121.358;2022-08-02T12:40:42;101001.81;;;20.90;72.67
64967;BME280;51710;38.732;-121.358;2022-08-02T12:43:21;101010.31;;;20.93;72.67
64967;BME280;51710;38.732;-121.358;2022-08-02T12:45:53;101008.44;;;20.94;72.38
64967;BME280;51710;38.732;-121.358;2022-08-02T12:48:36;101003.00;;;20.94;72.52
64967;BME280;51710;38.732;-121.358;2022-08-02T12:51:23;101000.31;;;20.94;72.25
64967;BME280;51710;38.732;-121.358;2022-08-02T12:53:51;101015.53;;;20.95;72.47
64967;BME280;51710;38.732;-121.358;2022-08-02T12:56:31;101010.09;;;20.95;72.68
64967;BME280;51710;38.732;-121.358;2022-08-02T12:58:58;101021.56;;;20.97;72.27
64967;BME280;51710;38.732;-121.358;2022-08-02T13:01:26;101015.06;;;20.98;72.24